createdAt,value
2023-04-05T00:00:12.261Z,100228.00
2023-04-05T00:03:03.254Z,100217.22
2023-04-05T00:05:30.740Z,100223.84
2023-04-05T00:07:57.965Z,100207.22
2023-04-05T00:10:28.001Z,100209.25
2023-04-05T00:13:00.821Z,100209.34
2023-04-05T00:15:28.086Z,100209.34
2023-04-05T00:17:55.414Z,100202.81
2023-04-05T00:20:22.608Z,100202.41
2023-04-05T00:22:50.897Z,100204.34
2023-04-05T00:25:18.598Z,100197.72
2023-04-05T00:27:45.920Z,100199.25
2023-04-05T00:30:13.472Z,100199.59
2023-04-05T00:32:40.730Z,100196.09
2023-04-05T00:35:08.208Z,100194.59
2023-04-05T00:37:35.108Z,100192.31
2023-04-05T00:40:02.557Z,100191.88
2023-04-05T00:42:29.912Z,100205.03
2023-04-05T00:44:58.231Z,100198.81
2023-04-05T00:47:26.650Z,100196.97
2023-04-05T00:49:53.909Z,100193.47
2023-04-05T00:52:23.476Z,100193.47
2023-04-05T00:54:51.873Z,100189.59
2023-04-05T00:57:18.770Z,100197.72
2023-04-05T00:59:46.922Z,100189.91
2023-04-05T01:02:18.247Z,100195.34
2023-04-05T01:04:50.291Z,100192.41
2023-04-05T01:07:37.728Z,100195.50
2023-04-05T01:10:10.774Z,100187.06
2023-04-05T01:12:39.833Z,100194.00
2023-04-05T01:15:07.407Z,100181.72
2023-04-05T01:17:39.306Z,100184.81
2023-04-05T01:20:12.151Z,100192.66
2023-04-05T01:22:52.170Z,100190.16
2023-04-05T01:25:36.968Z,100192.06
2023-04-05T01:28:06.733Z,100194.69
2023-04-05T01:30:36.357Z,100181.44
2023-04-05T01:33:23.916Z,100182.97
2023-04-05T01:36:01.522Z,100179.91
2023-04-05T01:38:29.236Z,100184.25
2023-04-05T01:40:56.591Z,100177.69
2023-04-05T01:43:23.685Z,100180.75
2023-04-05T01:45:51.009Z,100176.19
2023-04-05T01:48:18.199Z,100175.31
2023-04-05T01:50:45.829Z,100179.91
2023-04-05T01:53:14.367Z,100179.91
2023-04-05T01:55:44.072Z,100179.03
2023-04-05T01:58:12.549Z,100176.31
2023-04-05T02:00:39.999Z,100179.03
2023-04-05T02:03:07.699Z,100179.91
2023-04-05T02:05:35.063Z,100189.59
2023-04-05T02:08:03.284Z,100187.78
2023-04-05T02:10:30.656Z,100185.16
2023-04-05T02:12:57.594Z,100181.72
2023-04-05T02:15:25.276Z,100183.31
2023-04-05T02:17:54.259Z,100185.03
2023-04-05T02:20:21.766Z,100181.97
2023-04-05T02:22:51.966Z,100172.28
2023-04-05T02:25:19.568Z,100180.78
2023-04-05T02:27:46.530Z,100170.25
2023-04-05T02:30:15.643Z,100169.56
2023-04-05T02:32:43.082Z,100170.78
2023-04-05T02:35:10.816Z,100170.78
2023-04-05T02:37:38.068Z,100166.50
2023-04-05T02:40:15.171Z,100166.50
2023-04-05T02:42:42.656Z,100168.56
2023-04-05T02:45:10.076Z,100157.72
2023-04-05T02:47:37.673Z,100152.63
2023-04-05T02:50:07.673Z,100170.78
2023-04-05T02:52:41.395Z,100164.13
2023-04-05T02:55:09.188Z,100167.19
2023-04-05T02:57:37.443Z,100159.81
2023-04-05T03:00:20.479Z,100160.25
2023-04-05T03:02:47.968Z,100154.47
2023-04-05T03:05:18.768Z,100147.03
2023-04-05T03:07:52.434Z,100155.47
2023-04-05T03:10:25.087Z,100153.63
2023-04-05T03:13:01.900Z,100149.06
2023-04-05T03:15:32.746Z,100152.53
2023-04-05T03:18:06.697Z,100151.34
2023-04-05T03:20:36.204Z,100154.91
2023-04-05T03:23:03.834Z,100146.34
2023-04-05T03:25:34.280Z,100150.22
2023-04-05T03:28:06.171Z,100141.44
2023-04-05T03:30:34.814Z,100155.00
2023-04-05T03:33:13.642Z,100154.22
2023-04-05T03:35:45.403Z,100139.16
2023-04-05T03:38:16.343Z,100142.59
2023-04-05T03:40:56.049Z,100149.91
2023-04-05T03:43:23.642Z,100145.56
2023-04-05T03:45:50.759Z,100155.66
2023-04-05T03:48:20.418Z,100161.09
2023-04-05T03:50:49.056Z,100154.91
2023-04-05T03:53:20.614Z,100157.19
2023-04-05T03:55:55.784Z,100157.19
2023-04-05T03:58:49.246Z,100158.72
2023-04-05T04:01:19.540Z,100163.78
2023-04-05T04:03:47.161Z,100162.28
2023-04-05T04:06:15.434Z,100165.00
2023-04-05T04:08:44.455Z,100155.75
2023-04-05T04:11:11.846Z,100153.88
2023-04-05T04:13:41.177Z,100154.66
2023-04-05T04:16:18.141Z,100160.09
2023-04-05T04:18:57.934Z,100152.63
2023-04-05T04:21:25.172Z,100159.56
2023-04-05T04:24:18.794Z,100151.84
2023-04-05T04:26:54.791Z,100144.16
2023-04-05T04:29:31.082Z,100156.50
2023-04-05T04:32:45.123Z,100155.34
2023-04-05T04:35:39.288Z,100153.38
2023-04-05T04:38:48.294Z,100161.84
2023-04-05T04:41:36.166Z,100152.94
2023-04-05T04:44:31.287Z,100152.53
2023-04-05T04:47:31.904Z,100152.94
2023-04-05T04:50:20.376Z,100155.91
2023-04-05T04:52:47.851Z,100153.44
2023-04-05T04:55:26.034Z,100151.50
2023-04-05T04:57:53.805Z,100151.84
2023-04-05T05:00:22.432Z,100145.97
2023-04-05T05:02:50.920Z,100149.69
2023-04-05T05:05:22.798Z,100146.03
2023-04-05T05:07:50.826Z,100159.53
2023-04-05T05:10:19.011Z,100158.94
2023-04-05T05:12:46.577Z,100151.66
2023-04-05T05:15:18.124Z,100154.19
2023-04-05T05:17:45.799Z,100155.84
2023-04-05T05:20:12.835Z,100148.88
2023-04-05T05:22:46.635Z,100156.78
2023-04-05T05:25:13.984Z,100158.13
2023-04-05T05:27:42.110Z,100156.63
2023-04-05T05:30:09.689Z,100152.34
2023-04-05T05:32:37.273Z,100150.25
2023-04-05T05:35:06.116Z,100155.38
2023-04-05T05:37:33.783Z,100161.16
2023-04-05T05:40:01.064Z,100158.38
2023-04-05T05:42:28.510Z,100159.16
2023-04-05T05:44:55.553Z,100161.09
2023-04-05T05:47:23.281Z,100161.13
2023-04-05T05:49:50.413Z,100157.72
2023-04-05T05:52:17.762Z,100161.69
2023-04-05T05:54:44.745Z,100161.03
2023-04-05T05:57:12.153Z,100161.22
2023-04-05T05:59:42.154Z,100166.94
2023-04-05T06:02:09.472Z,100154.34
2023-04-05T06:04:37.998Z,100162.81
2023-04-05T06:07:05.253Z,100164.97
2023-04-05T06:09:35.645Z,100165.59
2023-04-05T06:12:03.222Z,100160.78
2023-04-05T06:14:30.260Z,100161.56
2023-04-05T06:16:57.925Z,100164.47
2023-04-05T06:19:25.980Z,100165.84
2023-04-05T06:21:53.541Z,100171.31
2023-04-05T06:24:21.081Z,100180.34
2023-04-05T06:26:48.388Z,100168.97
2023-04-05T06:29:15.536Z,100176.94
2023-04-05T06:31:43.945Z,100181.63
2023-04-05T06:34:11.056Z,100182.97
2023-04-05T06:36:38.363Z,100188.44
2023-04-05T06:39:05.342Z,100178.84
2023-04-05T06:41:32.699Z,100190.63
2023-04-05T06:44:00.604Z,100186.31
2023-04-05T06:46:28.548Z,100185.25
2023-04-05T06:48:55.747Z,100179.69
2023-04-05T06:51:26.793Z,100176.63
2023-04-05T06:53:53.758Z,100183.28
2023-04-05T06:56:21.842Z,100173.19
2023-04-05T06:58:51.034Z,100167.19
2023-04-05T07:01:18.674Z,100175.56
2023-04-05T07:03:48.619Z,100183.94
2023-04-05T07:06:16.546Z,100180.91
2023-04-05T07:08:43.604Z,100185.53
2023-04-05T07:11:12.973Z,100189.25
2023-04-05T07:13:39.987Z,100186.41
2023-04-05T07:16:07.799Z,100183.09
2023-04-05T07:18:34.849Z,100185.41
2023-04-05T07:21:03.889Z,100179.22
2023-04-05T07:23:31.035Z,100186.34
2023-04-05T07:26:05.679Z,100187.56
2023-04-05T07:28:33.891Z,100181.81
2023-04-05T07:31:04.217Z,100192.13
2023-04-05T07:33:31.678Z,100181.34
2023-04-05T07:35:59.273Z,100184.84
2023-04-05T07:38:27.124Z,100186.16
2023-04-05T07:40:54.718Z,100196.00
2023-04-05T07:43:25.616Z,100192.28
2023-04-05T07:45:56.480Z,100211.53
2023-04-05T07:48:23.481Z,100215.25
2023-04-05T07:50:52.996Z,100212.09
2023-04-05T07:53:20.064Z,100215.88
2023-04-05T07:55:47.370Z,100214.50
2023-04-05T07:58:14.420Z,100215.50
2023-04-05T08:00:42.304Z,100213.59
2023-04-05T08:03:09.588Z,100208.38
2023-04-05T08:05:36.967Z,100216.25
2023-04-05T08:08:08.856Z,100214.06
2023-04-05T08:10:38.914Z,100216.09
2023-04-05T08:13:08.437Z,100216.41
2023-04-05T08:15:38.164Z,100212.09
2023-04-05T08:18:05.435Z,100203.28
2023-04-05T08:20:39.680Z,100199.50
2023-04-05T08:23:07.018Z,100196.41
2023-04-05T08:25:34.491Z,100199.50
2023-04-05T08:28:01.526Z,100198.59
2023-04-05T08:30:28.815Z,100195.34
2023-04-05T08:32:55.859Z,100190.22
2023-04-05T08:35:23.778Z,100180.78
2023-04-05T08:37:50.932Z,100184.41
2023-04-05T08:40:18.384Z,100181.13
2023-04-05T08:43:05.618Z,100184.75
2023-04-05T08:45:34.452Z,100176.88
2023-04-05T08:48:01.531Z,100185.72
2023-04-05T08:50:31.262Z,100173.59
2023-04-05T08:52:58.529Z,100177.53
2023-04-05T08:55:26.308Z,100174.78
2023-04-05T08:57:59.289Z,100163.91
2023-04-05T09:00:33.024Z,100173.19
2023-04-05T09:03:03.386Z,100166.03
2023-04-05T09:05:31.049Z,100160.97
2023-04-05T09:07:58.675Z,100163.09
2023-04-05T09:10:27.401Z,100164.63
2023-04-05T09:12:54.427Z,100161.44
2023-04-05T09:16:28.622Z,100159.03
2023-04-05T09:18:59.794Z,100137.03
2023-04-05T09:21:29.519Z,100145.47
2023-04-05T09:23:56.755Z,100144.50
2023-04-05T09:26:26.446Z,100137.94
2023-04-05T09:29:00.150Z,100135.25
2023-04-05T09:31:40.282Z,100128.88
2023-04-05T09:34:12.383Z,100116.59
2023-04-05T09:36:46.616Z,100119.88
2023-04-05T09:39:14.158Z,100130.88
2023-04-05T09:41:42.013Z,100119.59
2023-04-05T09:44:08.941Z,100116.31
2023-04-05T09:46:39.609Z,100119.50
2023-04-05T09:50:10.668Z,100115.25
2023-04-05T09:52:37.976Z,100113.50
2023-04-05T09:55:07.327Z,100101.66
2023-04-05T09:57:35.607Z,100098.75
2023-04-05T10:00:04.457Z,100104.03
2023-04-05T10:02:42.021Z,100092.94
2023-04-05T10:05:15.969Z,100100.44
2023-04-05T10:07:43.757Z,100094.94
2023-04-05T10:10:12.654Z,100088.63
2023-04-05T10:12:41.736Z,100099.50
2023-04-05T10:15:10.655Z,100092.88
2023-04-05T10:18:00.722Z,100087.03
2023-04-05T10:20:28.354Z,100083.81
2023-04-05T10:23:08.092Z,100084.50
2023-04-05T10:25:44.949Z,100074.13
2023-04-05T10:28:14.852Z,100067.81
2023-04-05T10:30:46.730Z,100080.16
2023-04-05T10:33:20.658Z,100073.59
2023-04-05T10:35:51.215Z,100068.88
2023-04-05T10:38:24.625Z,100075.34
2023-04-05T10:40:53.208Z,100058.59
2023-04-05T10:43:27.202Z,100060.28
2023-04-05T10:45:54.934Z,100062.25
2023-04-05T10:48:37.502Z,100062.22
2023-04-05T10:51:05.414Z,100060.84
2023-04-05T10:53:34.203Z,100051.09
2023-04-05T10:56:01.775Z,100059.03
2023-04-05T10:58:29.583Z,100066.53
2023-04-05T11:00:57.805Z,100055.66
2023-04-05T11:03:43.935Z,100052.91
2023-04-05T11:06:23.201Z,100047.28
2023-04-05T11:08:55.006Z,100048.56
2023-04-05T11:11:22.614Z,100053.47
2023-04-05T11:13:53.384Z,100051.16
2023-04-05T11:16:20.875Z,100038.94
2023-04-05T11:18:49.645Z,100047.50
2023-04-05T11:21:26.324Z,100033.69
2023-04-05T11:24:07.923Z,100049.16
2023-04-05T11:26:48.752Z,100041.63
2023-04-05T11:29:16.336Z,100049.00
2023-04-05T11:32:02.304Z,100046.56
2023-04-05T11:34:29.525Z,100041.69
2023-04-05T11:36:56.436Z,100039.75
2023-04-05T11:39:24.126Z,100042.41
2023-04-05T11:41:57.310Z,100038.19
2023-04-05T11:44:24.996Z,100025.38
2023-04-05T11:46:52.737Z,100035.69
2023-04-05T11:49:22.290Z,100045.00
2023-04-05T11:51:50.419Z,100026.13
2023-04-05T11:54:31.268Z,100031.66
2023-04-05T11:56:58.487Z,100032.44
2023-04-05T11:59:35.943Z,100018.09
2023-04-05T12:02:05.629Z,100024.38
2023-04-05T12:04:32.989Z,100017.53
2023-04-05T12:07:17.033Z,100018.34
2023-04-05T12:10:03.986Z,100019.38
2023-04-05T12:12:34.251Z,100010.06
2023-04-05T12:15:02.862Z,100007.00
2023-04-05T12:17:39.685Z,100011.25
2023-04-05T12:20:07.563Z,100007.31
2023-04-05T12:22:34.883Z,99999.00
2023-04-05T12:25:05.479Z,99999.41
2023-04-05T12:27:32.492Z,100007.75
2023-04-05T12:30:10.176Z,99994.94
2023-04-05T12:32:43.548Z,100003.22
2023-04-05T12:35:12.455Z,100000.69
2023-04-05T12:37:41.925Z,99999.44
2023-04-05T12:40:10.869Z,99996.69
2023-04-05T12:42:38.856Z,99997.69
2023-04-05T12:45:07.836Z,100002.47
2023-04-05T12:47:36.010Z,99994.75
2023-04-05T12:50:14.663Z,99991.75
2023-04-05T12:52:53.994Z,99986.41
2023-04-05T12:55:21.704Z,99986.72
2023-04-05T12:57:52.880Z,99982.94
2023-04-05T13:00:24.763Z,99984.97
2023-04-05T13:02:53.797Z,99988.13
2023-04-05T13:05:22.357Z,99978.31
2023-04-05T13:07:49.359Z,99976.91
2023-04-05T13:10:17.358Z,99979.19
2023-04-05T13:12:44.275Z,99969.91
2023-04-05T13:15:11.721Z,99963.88
2023-04-05T13:17:38.716Z,99970.63
2023-04-05T13:20:06.570Z,99975.94
2023-04-05T13:22:34.132Z,99973.13
2023-04-05T13:25:01.418Z,99972.06
2023-04-05T13:27:30.958Z,99978.81
2023-04-05T13:29:58.119Z,99978.06
2023-04-05T13:32:25.199Z,99971.06
2023-04-05T13:34:52.592Z,99976.88
2023-04-05T13:37:19.627Z,99976.63
2023-04-05T13:39:49.616Z,99980.94
2023-04-05T13:42:16.731Z,99982.16
2023-04-05T13:44:44.065Z,99971.34
2023-04-05T13:47:11.039Z,99973.59
2023-04-05T13:49:38.485Z,99971.38
2023-04-05T13:52:05.596Z,99971.66
2023-04-05T13:54:32.896Z,99974.13
2023-04-05T13:56:59.993Z,99962.56
2023-04-05T13:59:29.915Z,99968.06
2023-04-05T14:01:57.519Z,99955.78
2023-04-05T14:04:24.984Z,99959.78
2023-04-05T14:06:52.084Z,99956.78
2023-04-05T14:09:19.417Z,99951.47
2023-04-05T14:11:46.502Z,99953.47
2023-04-05T14:14:14.083Z,99955.00
2023-04-05T14:16:41.042Z,99957.50
2023-04-05T14:19:08.375Z,99956.50
2023-04-05T14:21:37.360Z,99954.75
2023-04-05T14:24:04.623Z,99949.00
2023-04-05T14:26:31.747Z,99955.25
2023-04-05T14:28:59.322Z,99950.00
2023-04-05T14:31:26.489Z,99951.47
2023-04-05T14:33:53.928Z,99954.19
2023-04-05T14:36:21.059Z,99953.97
2023-04-05T14:38:48.436Z,99947.22
2023-04-05T14:41:15.689Z,99952.72
2023-04-05T14:43:43.372Z,99958.53
2023-04-05T14:46:10.752Z,99953.25
2023-04-05T14:48:38.210Z,99952.50
2023-04-05T14:51:05.606Z,99961.53
2023-04-05T14:53:33.030Z,99958.53
2023-04-05T14:56:00.940Z,99960.25
2023-04-05T14:58:29.584Z,99964.69
2023-04-05T15:00:57.170Z,99967.16
2023-04-05T15:03:25.159Z,99957.84
2023-04-05T15:05:52.491Z,99960.34
2023-04-05T15:08:22.736Z,99957.09
2023-04-05T15:10:49.876Z,99956.59
2023-04-05T15:13:19.860Z,99958.03
2023-04-05T15:15:46.941Z,99953.78
2023-04-05T15:18:14.347Z,99955.25
2023-04-05T15:20:42.805Z,99957.75
2023-04-05T15:23:10.128Z,99955.00
2023-04-05T15:25:37.131Z,99964.50
2023-04-05T15:28:07.029Z,99959.44
2023-04-05T15:30:34.290Z,99957.66
2023-04-05T15:33:02.247Z,99962.69
2023-04-05T15:35:29.464Z,99967.16
2023-04-05T15:37:57.113Z,99962.88
2023-04-05T15:40:24.125Z,99965.34
2023-04-05T15:42:51.479Z,99954.09
2023-04-05T15:45:18.538Z,99955.34
2023-04-05T15:47:45.864Z,99965.19
2023-04-05T15:50:12.991Z,99952.34
2023-04-05T15:52:40.251Z,99957.09
2023-04-05T15:55:07.473Z,99960.06
2023-04-05T15:57:34.723Z,99966.81
2023-04-05T16:00:02.006Z,99959.25
2023-04-05T16:02:32.020Z,99959.22
2023-04-05T16:04:58.984Z,99960.91
2023-04-05T16:07:26.625Z,99959.47
2023-04-05T16:09:53.593Z,99958.16
2023-04-05T16:12:20.958Z,99956.13
2023-04-05T16:14:47.999Z,99954.31
2023-04-05T16:17:15.582Z,99960.63
2023-04-05T16:19:44.976Z,99966.81
2023-04-05T16:22:12.434Z,99970.00
2023-04-05T16:24:39.418Z,99965.50
2023-04-05T16:27:06.887Z,99967.72
2023-04-05T16:29:33.993Z,99964.44
2023-04-05T16:32:03.743Z,99962.88
2023-04-05T16:34:31.174Z,99961.53
2023-04-05T16:36:58.848Z,99966.00
2023-04-05T16:39:25.936Z,99963.00
2023-04-05T16:41:55.670Z,99957.69
2023-04-05T16:44:22.565Z,99964.69
2023-04-05T16:46:49.823Z,99960.94
2023-04-05T16:49:17.216Z,99973.66
2023-04-05T16:51:44.496Z,99972.38
2023-04-05T16:54:11.753Z,99972.38
2023-04-05T16:56:39.402Z,99969.13
2023-04-05T16:59:08.159Z,99969.34
2023-04-05T17:01:36.034Z,99970.59
2023-04-05T17:04:06.271Z,99973.09
2023-04-05T17:06:34.161Z,99975.56
2023-04-05T17:09:02.415Z,99978.44
2023-04-05T17:11:30.742Z,99978.16
2023-04-05T17:13:59.612Z,99978.38
2023-04-05T17:16:27.338Z,99985.59
2023-04-05T17:18:54.461Z,99976.25
2023-04-05T17:21:23.018Z,99978.47
2023-04-05T17:23:50.077Z,99983.19
2023-04-05T17:26:17.566Z,99985.41
2023-04-05T17:28:44.698Z,99987.38
2023-04-05T17:31:12.236Z,99985.31
2023-04-05T17:33:39.349Z,99984.09
2023-04-05T17:36:07.465Z,99986.56
2023-04-05T17:38:34.737Z,99988.06
2023-04-05T17:41:03.051Z,99984.78
2023-04-05T17:43:30.175Z,99976.47
2023-04-05T17:45:57.553Z,99987.94
2023-04-05T17:48:24.789Z,99985.47
2023-04-05T17:50:52.311Z,99992.97
2023-04-05T17:53:21.868Z,99992.97
2023-04-05T17:55:51.549Z,100001.97
2023-04-05T17:58:19.679Z,99996.72
2023-04-05T18:00:47.040Z,99987.69
2023-04-05T18:03:14.379Z,100000.09
2023-04-05T18:05:41.743Z,100004.56
2023-04-05T18:08:08.803Z,100006.56
2023-04-05T18:10:36.616Z,100006.75
2023-04-05T18:13:06.641Z,100019.19
2023-04-05T18:15:34.315Z,100012.38
2023-04-05T18:18:01.614Z,100012.78
2023-04-05T18:20:29.322Z,100020.88
2023-04-05T18:22:58.233Z,100010.75
2023-04-05T18:25:26.109Z,100012.38
2023-04-05T18:27:53.653Z,100016.66
2023-04-05T18:30:21.185Z,100010.63
2023-04-05T18:32:48.107Z,100018.56
2023-04-05T18:35:15.592Z,100018.78
2023-04-05T18:37:42.549Z,100023.66
2023-04-05T18:40:09.826Z,100024.53
2023-04-05T18:42:37.471Z,100025.91
2023-04-05T18:45:04.685Z,100031.56
2023-04-05T18:47:34.070Z,100027.22
2023-04-05T18:50:03.648Z,100032.72
2023-04-05T18:52:34.225Z,100032.34
2023-04-05T18:55:01.584Z,100032.84
2023-04-05T18:57:32.282Z,100042.28
2023-04-05T18:59:59.650Z,100033.59
2023-04-05T19:02:27.503Z,100038.59
2023-04-05T19:04:55.578Z,100039.94
2023-04-05T19:07:23.465Z,100037.09
2023-04-05T19:09:50.545Z,100039.38
2023-04-05T19:12:17.990Z,100038.88
2023-04-05T19:14:46.652Z,100039.94
2023-04-05T19:17:14.451Z,100041.91
2023-04-05T19:19:42.624Z,100041.75
2023-04-05T19:22:11.363Z,100038.53
2023-04-05T19:24:40.308Z,100030.75
2023-04-05T19:27:08.310Z,100030.47
2023-04-05T19:29:36.297Z,100036.25
2023-04-05T19:32:04.245Z,100042.78
2023-04-05T19:34:32.333Z,100047.31
2023-04-05T19:37:01.112Z,100041.25
2023-04-05T19:39:29.851Z,100043.91
2023-04-05T19:41:58.426Z,100040.50
2023-04-05T19:44:36.002Z,100036.31
2023-04-05T19:47:07.534Z,100029.38
2023-04-05T19:49:39.481Z,100028.41
2023-04-05T19:52:08.485Z,100030.66
2023-04-05T19:54:38.931Z,100036.25
2023-04-05T19:57:07.380Z,100031.94
2023-04-05T19:59:35.080Z,100031.56
2023-04-05T20:02:12.060Z,100030.25
2023-04-05T20:04:39.833Z,100026.81
2023-04-05T20:07:10.017Z,100025.31
2023-04-05T20:09:40.182Z,100027.94
2023-04-05T20:12:07.781Z,100033.44
2023-04-05T20:14:34.831Z,100025.72
2023-04-05T20:17:02.170Z,100027.56
2023-04-05T20:19:30.918Z,100024.97
2023-04-05T20:22:01.713Z,100022.56
2023-04-05T20:24:30.532Z,100018.50
2023-04-05T20:26:58.409Z,100021.06
2023-04-05T20:29:27.814Z,100011.97
2023-04-05T20:31:55.486Z,100014.56
2023-04-05T20:34:31.622Z,100015.31
2023-04-05T20:37:00.802Z,100006.84
2023-04-05T20:39:28.596Z,99998.50
2023-04-05T20:41:56.952Z,100004.84
2023-04-05T20:44:24.962Z,100006.84
2023-04-05T20:46:54.238Z,100014.44
2023-04-05T20:49:21.642Z,100005.94
2023-04-05T20:51:55.908Z,100003.81
2023-04-05T20:54:25.745Z,100006.84
2023-04-05T20:56:53.437Z,99998.19
2023-04-05T20:59:21.950Z,99999.28
2023-04-05T21:01:49.602Z,100008.38
2023-04-05T21:04:19.076Z,100000.03
2023-04-05T21:06:46.614Z,99999.88
2023-04-05T21:09:16.154Z,100001.22
2023-04-05T21:11:43.642Z,99993.94
2023-04-05T21:14:11.199Z,99999.81
2023-04-05T21:16:41.074Z,99990.41
2023-04-05T21:19:11.100Z,99998.56
2023-04-05T21:21:38.799Z,99995.81
2023-04-05T21:24:09.655Z,99998.66
2023-04-05T21:26:37.906Z,99998.50
2023-04-05T21:29:05.635Z,99998.16
2023-04-05T21:31:33.839Z,99992.09
2023-04-05T21:34:01.022Z,99998.91
2023-04-05T21:36:29.912Z,100003.53
2023-04-05T21:38:58.917Z,99998.78
2023-04-05T21:41:27.367Z,100004.38
2023-04-05T21:43:57.720Z,99999.06
2023-04-05T21:46:25.727Z,99994.06
2023-04-05T21:48:52.865Z,99997.69
2023-04-05T21:51:20.602Z,99995.84
2023-04-05T21:53:48.312Z,99991.88
2023-04-05T21:56:16.550Z,99994.72
2023-04-05T21:58:43.843Z,99990.75
2023-04-05T22:01:14.045Z,99984.03
2023-04-05T22:03:41.529Z,99996.72
2023-04-05T22:06:09.224Z,99989.00
2023-04-05T22:08:39.840Z,99995.69
2023-04-05T22:11:07.462Z,99990.03
2023-04-05T22:13:34.665Z,99987.88
2023-04-05T22:16:02.263Z,99994.84
2023-04-05T22:18:29.638Z,99997.25
2023-04-05T22:20:57.513Z,99999.09
2023-04-05T22:23:24.702Z,99998.75
2023-04-05T22:25:55.250Z,99998.22
2023-04-05T22:28:23.749Z,99989.28
2023-04-05T22:30:51.888Z,99995.50
2023-04-05T22:33:19.051Z,99998.38
2023-04-05T22:35:49.185Z,99995.63
2023-04-05T22:38:16.448Z,99995.28
2023-04-05T22:40:47.796Z,99991.63
2023-04-05T22:43:15.134Z,99997.25
2023-04-05T22:45:45.142Z,99990.47
2023-04-05T22:48:12.417Z,99988.50
2023-04-05T22:50:41.742Z,99993.94
2023-04-05T22:53:08.905Z,99987.84
2023-04-05T22:55:40.736Z,99984.84
2023-04-05T22:58:08.252Z,99991.63
2023-04-05T23:00:37.576Z,99988.16
2023-04-05T23:03:05.098Z,99987.38
2023-04-05T23:05:36.918Z,99986.28
2023-04-05T23:08:04.539Z,99988.41
2023-04-05T23:10:33.205Z,99989.41
2023-04-05T23:13:00.986Z,99991.63
2023-04-05T23:15:29.997Z,99994.47
2023-04-05T23:18:00.057Z,99992.88
2023-04-05T23:20:27.901Z,99997.25
2023-04-05T23:22:57.974Z,99991.81
2023-04-05T23:25:25.856Z,99996.28
2023-04-05T23:27:55.565Z,99987.50
2023-04-05T23:30:24.454Z,99985.44
2023-04-05T23:32:52.088Z,99983.47
2023-04-05T23:35:22.468Z,99984.81
2023-04-05T23:37:50.034Z,99980.16
2023-04-05T23:40:17.818Z,99982.66
2023-04-05T23:42:46.485Z,99981.13
2023-04-05T23:45:14.014Z,99975.22
2023-04-05T23:47:41.468Z,99978.84
2023-04-05T23:50:09.514Z,99970.03
2023-04-05T23:52:40.103Z,99968.97
2023-04-05T23:55:07.773Z,99961.47
2023-04-05T23:57:37.265Z,99969.56
